Time,TemperatureF,DewpointF,PressureIn,WindDirection,WindDirectionDegrees,WindSpeedMPH,WindSpeedGustMPH,Humidity,HourlyPrecipIn,Conditions,Clouds,dailyrainin,SoftwareType,DateUTC
2013-04-20 00:06:00,50.5,38.4,29.92,West,270,2.0,4.0,63,0.00,,CLR,0.00,VWS V14.01,2013-04-20 04:06:00,
2013-04-20 00:11:00,50.3,38.6,29.92,NW,325,4.0,6.0,64,0.00,,CLR,0.00,VWS V14.01,2013-04-20 04:11:00,
2013-04-20 00:16:00,50.2,39.3,29.93,SW,235,2.0,3.0,66,0.00,,CLR,0.00,VWS V14.01,2013-04-20 04:16:00,
2013-04-20 00:21:00,50.0,38.3,29.93,WNW,287,3.0,4.0,64,0.00,,CLR,0.00,VWS V14.01,2013-04-20 04:21:00,
2013-04-20 00:26:00,49.9,39.0,29.93,WNW,302,2.0,3.0,66,0.00,,CLR,0.00,VWS V14.01,2013-04-20 04:26:00,
2013-04-20 00:31:00,49.8,38.5,29.93,SSW,203,2.0,7.0,65,0.00,,CLR,0.00,VWS V14.01,2013-04-20 04:31:00,
2013-04-20 00:36:00,49.7,38.8,29.93,NW,307,4.0,4.0,66,0.00,,CLR,0.00,VWS V14.01,2013-04-20 04:36:00,
2013-04-20 00:41:00,49.7,38.4,29.93,NW,307,5.0,5.0,65,0.00,,CLR,0.00,VWS V14.01,2013-04-20 04:41:00,
2013-04-20 00:46:00,49.5,38.2,29.93,NNW,327,3.0,6.0,65,0.00,,CLR,0.00,VWS V14.01,2013-04-20 04:46:00,
2013-04-20 00:51:00,49.5,38.6,29.93,NW,318,2.0,2.0,66,0.00,,CLR,0.00,VWS V14.01,2013-04-20 04:51:00,
2013-04-20 00:56:00,49.4,38.5,29.93,NW,311,2.0,4.0,66,0.00,,CLR,0.00,VWS V14.01,2013-04-20 04:56:00,
2013-04-20 01:01:00,49.3,38.4,29.94,NNW,330,2.0,3.0,66,0.59,,CLR,0.00,VWS V14.01,2013-04-20 05:01:00,
2013-04-20 01:06:00,49.1,38.6,29.94,NNW,329,2.0,3.0,67,0.00,,CLR,0.00,VWS V14.01,2013-04-20 05:06:00,
2013-04-20 01:11:00,48.9,38.8,29.94,NNW,342,1.0,1.0,68,0.00,,CLR,0.00,VWS V14.01,2013-04-20 05:11:00,
2013-04-20 01:16:00,48.7,37.9,29.94,NW,314,3.0,3.0,66,0.00,,CLR,0.00,VWS V14.01,2013-04-20 05:16:00,
2013-04-20 01:21:00,48.6,37.8,29.95,NW,313,4.0,6.0,66,0.00,,CLR,0.00,VWS V14.01,2013-04-20 05:21:00,
2013-04-20 01:26:00,48.6,37.0,29.95,NW,314,5.0,7.0,64,0.00,,CLR,0.00,VWS V14.01,2013-04-20 05:26:00,
2013-04-20 01:31:00,48.5,36.9,29.95,NW,319,3.0,4.0,64,0.00,,CLR,0.00,VWS V14.01,2013-04-20 05:31:00,
2013-04-20 01:36:00,48.4,37.2,29.95,NW,325,2.0,4.0,65,0.00,,CLR,0.00,VWS V14.01,2013-04-20 05:36:00,
2013-04-20 01:41:00,48.3,36.7,29.95,NW,316,4.0,8.0,64,0.00,,CLR,0.00,VWS V14.01,2013-04-20 05:41:00,
2013-04-20 01:46:00,48.1,36.5,29.95,NW,308,5.0,5.0,64,0.00,,CLR,0.00,VWS V14.01,2013-04-20 05:46:00,
2013-04-20 01:51:00,47.9,35.9,29.95,NW,314,2.0,5.0,63,0.00,,CLR,0.00,VWS V14.01,2013-04-20 05:51:00,
2013-04-20 01:56:00,47.7,36.1,29.95,WNW,283,4.0,5.0,64,0.00,,CLR,0.00,VWS V14.01,2013-04-20 05:56:00,
2013-04-20 02:01:00,47.6,35.6,29.95,NNW,343,4.0,4.0,63,0.00,,CLR,0.00,VWS V14.01,2013-04-20 06:01:00,
2013-04-20 02:06:00,47.5,36.3,29.95,NW,307,0.0,1.0,65,0.00,,CLR,0.00,VWS V14.01,2013-04-20 06:06:00,
2013-04-20 02:11:00,47.1,36.7,29.95,NW,316,2.0,2.0,67,0.00,,CLR,0.00,VWS V14.01,2013-04-20 06:11:00,
2013-04-20 02:16:00,46.8,36.4,29.95,NW,314,2.0,2.0,67,0.00,,CLR,0.00,VWS V14.01,2013-04-20 06:16:00,
2013-04-20 02:22:00,46.5,35.8,29.95,NW,307,2.0,3.0,66,0.00,,CLR,0.00,VWS V14.01,2013-04-20 06:22:00,
2013-04-20 02:27:00,46.4,35.3,29.95,NW,305,4.0,4.0,65,0.00,,CLR,0.00,VWS V14.01,2013-04-20 06:27:00,
2013-04-20 02:32:00,46.3,35.6,29.95,WNW,300,2.0,3.0,66,0.00,,CLR,0.00,VWS V14.01,2013-04-20 06:32:00,
2013-04-20 02:37:00,46.1,35.4,29.95,WNW,296,3.0,3.0,66,0.00,,CLR,0.00,VWS V14.01,2013-04-20 06:37:00,
2013-04-20 02:42:00,46.1,35.0,29.95,NW,311,2.0,5.0,65,0.00,,CLR,0.00,VWS V14.01,2013-04-20 06:42:00,
2013-04-20 02:47:00,46.1,35.0,29.95,NNW,336,2.0,4.0,65,0.00,,CLR,0.00,VWS V14.01,2013-04-20 06:47:00,
2013-04-20 02:52:00,46.1,34.6,29.95,NNW,328,1.0,2.0,64,0.00,,CLR,0.00,VWS V14.01,2013-04-20 06:52:00,
2013-04-20 02:57:00,46.1,34.6,29.95,WNW,288,2.0,6.0,64,0.00,,CLR,0.00,VWS V14.01,2013-04-20 06:57:00,
2013-04-20 03:02:00,45.9,34.8,29.95,NW,307,2.0,3.0,65,0.00,,CLR,0.00,VWS V14.01,2013-04-20 07:02:00,
2013-04-20 03:07:00,45.6,36.0,29.95,WNW,294,0.0,0.0,69,0.00,,CLR,0.00,VWS V14.01,2013-04-20 07:07:00,
2013-04-20 03:12:00,45.2,36.4,29.95,NNW,330,0.0,0.0,71,0.00,,CLR,0.00,VWS V14.01,2013-04-20 07:12:00,
2013-04-20 03:17:00,44.7,37.3,29.95,North,9,1.0,1.0,75,0.00,,CLR,0.00,VWS V14.01,2013-04-20 07:17:00,
2013-04-20 03:22:00,44.1,36.7,29.96,NE,39,1.0,1.0,75,0.00,,CLR,0.00,VWS V14.01,2013-04-20 07:22:00,
2013-04-20 03:27:00,43.9,36.2,29.96,NNW,346,0.0,1.0,74,0.00,,CLR,0.00,VWS V14.01,2013-04-20 07:27:00,
2013-04-20 03:32:00,43.6,36.5,29.97,SE,139,0.0,0.0,76,0.00,,CLR,0.00,VWS V14.01,2013-04-20 07:32:00,
2013-04-20 03:37:00,42.9,37.2,29.97,SSE,163,1.0,1.0,80,0.00,,CLR,0.00,VWS V14.01,2013-04-20 07:37:00,
2013-04-20 03:42:00,42.3,36.9,29.98,SSE,163,1.0,1.0,81,0.00,,CLR,0.00,VWS V14.01,2013-04-20 07:42:00,
2013-04-20 03:47:00,41.8,37.6,29.98,SSE,158,2.0,3.0,85,0.00,,CLR,0.00,VWS V14.01,2013-04-20 07:47:00,
2013-04-20 03:52:00,41.3,36.8,29.98,SSE,155,1.0,1.0,84,0.00,,CLR,0.00,VWS V14.01,2013-04-20 07:52:00,
2013-04-20 03:57:00,40.9,36.8,29.99,SE,146,1.0,1.0,85,0.00,,CLR,0.00,VWS V14.01,2013-04-20 07:57:00,
2013-04-20 04:02:00,40.5,36.7,29.99,SSE,149,0.0,0.0,86,0.00,,CLR,0.00,VWS V14.01,2013-04-20 08:02:00,
2013-04-20 04:07:00,40.3,36.5,29.99,North,4,1.0,3.0,86,0.00,,CLR,0.00,VWS V14.01,2013-04-20 08:07:00,
2013-04-20 04:12:00,41.4,34.7,29.99,WNW,287,1.0,2.0,77,0.00,,CLR,0.00,VWS V14.01,2013-04-20 08:12:00,
2013-04-20 04:17:00,41.8,35.1,29.99,WSW,256,0.0,1.0,77,0.00,,CLR,0.00,VWS V14.01,2013-04-20 08:17:00,
2013-04-20 04:22:00,41.9,34.6,29.99,West,271,1.0,1.0,75,0.00,,CLR,0.00,VWS V14.01,2013-04-20 08:22:00,
2013-04-20 04:27:00,42.3,33.9,30.00,WNW,297,1.0,3.0,72,0.00,,CLR,0.00,VWS V14.01,2013-04-20 08:27:00,
2013-04-20 04:32:00,42.4,35.4,30.00,West,269,0.0,1.0,76,0.00,,CLR,0.00,VWS V14.01,2013-04-20 08:32:00,
2013-04-20 04:37:00,42.2,34.2,30.00,NW,312,1.0,5.0,73,0.00,,CLR,0.00,VWS V14.01,2013-04-20 08:37:00,
2013-04-20 04:42:00,42.8,33.7,30.00,WNW,289,1.0,4.0,70,0.00,,CLR,0.00,VWS V14.01,2013-04-20 08:42:00,
2013-04-20 04:47:00,42.9,34.2,30.00,NW,311,3.0,3.0,71,0.00,,CLR,0.00,VWS V14.01,2013-04-20 08:47:00,
2013-04-20 04:52:00,43.1,33.3,30.00,NNW,340,6.0,6.0,68,0.00,,CLR,0.00,VWS V14.01,2013-04-20 08:52:00,
2013-04-20 04:57:00,43.3,33.5,30.01,NNW,330,2.0,4.0,68,0.00,,CLR,0.00,VWS V14.01,2013-04-20 08:57:00,
2013-04-20 05:02:00,43.6,33.0,30.00,NNW,327,2.0,8.0,66,0.00,,CLR,0.00,VWS V14.01,2013-04-20 09:02:00,
2013-04-20 05:07:00,43.7,32.7,30.01,NW,305,5.0,5.0,65,0.00,,CLR,0.00,VWS V14.01,2013-04-20 09:07:00,
2013-04-20 05:12:00,43.8,32.0,30.01,NW,305,5.0,9.0,63,0.00,,CLR,0.00,VWS V14.01,2013-04-20 09:12:00,
2013-04-20 05:17:00,43.7,32.0,30.01,NW,308,3.0,5.0,63,0.00,,CLR,0.00,VWS V14.01,2013-04-20 09:17:00,
2013-04-20 05:22:00,43.7,31.1,30.02,WNW,301,7.0,8.0,61,0.00,,CLR,0.00,VWS V14.01,2013-04-20 09:22:00,
2013-04-20 05:27:00,43.6,31.9,30.02,NW,316,2.0,4.0,63,0.00,,CLR,0.00,VWS V14.01,2013-04-20 09:27:00,
2013-04-20 05:32:00,43.5,31.4,30.02,NW,305,3.0,3.0,62,0.00,,CLR,0.00,VWS V14.01,2013-04-20 09:32:00,
2013-04-20 05:37:00,43.2,31.1,30.02,NW,304,3.0,3.0,62,0.00,,CLR,0.00,VWS V14.01,2013-04-20 09:37:00,
2013-04-20 05:42:00,43.0,30.9,30.02,WNW,302,2.0,6.0,62,0.00,,CLR,0.00,VWS V14.01,2013-04-20 09:42:00,
2013-04-20 05:47:00,43.1,30.2,30.03,NNW,333,8.0,9.0,60,0.00,,CLR,0.00,VWS V14.01,2013-04-20 09:47:00,
2013-04-20 05:52:00,43.4,30.0,30.03,WNW,294,4.0,8.0,59,0.00,,CLR,0.00,VWS V14.01,2013-04-20 09:52:00,
2013-04-20 05:57:00,43.4,29.6,30.03,NW,307,5.0,11.0,58,0.00,,CLR,0.00,VWS V14.01,2013-04-20 09:57:00,
2013-04-20 06:02:00,43.3,28.7,30.03,NW,305,5.0,5.0,56,0.00,,CLR,0.00,VWS V14.01,2013-04-20 10:02:00,
2013-04-20 06:07:00,43.4,27.9,30.04,NNW,336,2.0,4.0,54,0.00,,CLR,0.00,VWS V14.01,2013-04-20 10:07:00,
2013-04-20 06:12:00,43.2,28.1,30.04,NNE,27,2.0,5.0,55,0.00,,CLR,0.00,VWS V14.01,2013-04-20 10:12:00,
2013-04-20 06:17:00,43.1,28.0,30.04,NNW,333,5.0,12.0,55,0.00,,CLR,0.00,VWS V14.01,2013-04-20 10:17:00,
2013-04-20 06:22:00,43.1,28.0,30.05,NW,307,7.0,12.0,55,0.00,,CLR,0.00,VWS V14.01,2013-04-20 10:22:00,
2013-04-20 06:27:00,43.1,28.0,30.05,NNE,12,5.0,8.0,55,0.00,,CLR,0.00,VWS V14.01,2013-04-20 10:27:00,
2013-04-20 06:32:00,43.2,28.1,30.06,NW,316,4.0,5.0,55,0.00,,CLR,0.00,VWS V14.01,2013-04-20 10:32:00,
2013-04-20 06:37:00,43.1,28.0,30.06,NW,323,10.0,13.0,55,0.00,,CLR,0.00,VWS V14.01,2013-04-20 10:37:00,
2013-04-20 06:42:00,43.2,27.7,30.06,North,349,4.0,10.0,54,0.00,,CLR,0.00,VWS V14.01,2013-04-20 10:42:00,
2013-04-20 06:47:00,42.9,28.3,30.06,WNW,293,5.0,6.0,56,0.00,,CLR,0.00,VWS V14.01,2013-04-20 10:47:00,
2013-04-20 06:52:00,42.8,27.3,30.06,NW,305,4.0,11.0,54,0.00,,CLR,0.00,VWS V14.01,2013-04-20 10:52:00,
2013-04-20 06:57:00,42.7,27.7,30.07,NW,313,4.0,6.0,55,0.00,,CLR,0.00,VWS V14.01,2013-04-20 10:57:00,
2013-04-20 07:02:00,42.5,27.9,30.07,NW,316,4.0,7.0,56,0.00,,CLR,0.00,VWS V14.01,2013-04-20 11:02:00,
2013-04-20 07:07:00,42.3,28.6,30.08,NW,304,4.0,4.0,58,0.00,,CLR,0.00,VWS V14.01,2013-04-20 11:07:00,
2013-04-20 07:12:00,42.2,28.5,30.08,NW,321,4.0,4.0,58,0.00,,CLR,0.00,VWS V14.01,2013-04-20 11:12:00,
2013-04-20 07:17:00,42.3,28.6,30.08,WNW,298,3.0,4.0,58,0.00,,CLR,0.00,VWS V14.01,2013-04-20 11:17:00,
2013-04-20 07:22:00,42.5,29.6,30.09,NW,318,0.0,1.0,60,0.00,,CLR,0.00,VWS V14.01,2013-04-20 11:22:00,
2013-04-20 07:27:00,42.8,32.2,30.09,NE,45,3.0,3.0,66,0.00,,CLR,0.00,VWS V14.01,2013-04-20 11:27:00,
2013-04-20 07:32:00,42.8,31.1,30.09,NE,52,0.0,1.0,63,0.00,,CLR,0.00,VWS V14.01,2013-04-20 11:32:00,
2013-04-20 07:37:00,43.4,32.0,30.10,ENE,77,0.0,1.0,64,0.00,,CLR,0.00,VWS V14.01,2013-04-20 11:37:00,
2013-04-20 07:42:00,44.0,31.8,30.10,East,86,0.0,1.0,62,0.00,,CLR,0.00,VWS V14.01,2013-04-20 11:42:00,
2013-04-20 07:47:00,44.4,33.8,30.11,ESE,120,0.0,0.0,66,0.00,,CLR,0.00,VWS V14.01,2013-04-20 11:47:00,
2013-04-20 07:52:00,45.0,33.2,30.11,NE,38,0.0,0.0,63,0.00,,CLR,0.00,VWS V14.01,2013-04-20 11:52:00,
2013-04-20 07:57:00,45.6,32.5,30.11,NNE,15,1.0,1.0,60,0.00,,CLR,0.00,VWS V14.01,2013-04-20 11:57:00,
2013-04-20 08:02:00,46.1,31.3,30.12,NNE,23,3.0,3.0,56,0.00,,CLR,0.00,VWS V14.01,2013-04-20 12:02:00,
2013-04-20 08:07:00,46.1,31.7,30.12,NNE,29,2.0,2.0,57,0.00,,CLR,0.00,VWS V14.01,2013-04-20 12:07:00,
2013-04-20 08:12:00,46.2,30.9,30.12,North,356,0.0,2.0,55,0.00,,CLR,0.00,VWS V14.01,2013-04-20 12:12:00,
2013-04-20 08:17:00,47.1,31.3,30.12,NNW,333,0.0,2.0,54,0.00,,CLR,0.00,VWS V14.01,2013-04-20 12:17:00,
2013-04-20 08:22:00,47.1,29.4,30.13,NW,308,1.0,2.0,50,0.00,,CLR,0.00,VWS V14.01,2013-04-20 12:22:00,
2013-04-20 08:27:00,47.3,29.1,30.13,NW,311,2.0,4.0,49,0.00,,CLR,0.00,VWS V14.01,2013-04-20 12:27:00,
2013-04-20 08:32:00,47.2,28.5,30.12,NNW,340,3.0,5.0,48,0.00,,CLR,0.00,VWS V14.01,2013-04-20 12:32:00,
2013-04-20 08:37:00,47.4,28.7,30.13,NNW,327,7.0,7.0,48,0.00,,CLR,0.00,VWS V14.01,2013-04-20 12:37:00,
2013-04-20 08:42:00,47.6,27.9,30.13,NW,305,3.0,6.0,46,0.00,,CLR,0.00,VWS V14.01,2013-04-20 12:42:00,
2013-04-20 08:47:00,47.9,30.2,30.13,NE,53,8.0,10.0,50,0.00,,CLR,0.00,VWS V14.01,2013-04-20 12:47:00,
2013-04-20 08:52:00,47.9,28.7,30.13,NNE,18,5.0,15.0,47,0.00,,CLR,0.00,VWS V14.01,2013-04-20 12:52:00,
2013-04-20 08:57:00,47.8,28.0,30.13,NW,305,3.0,5.0,46,0.00,,CLR,0.00,VWS V14.01,2013-04-20 12:57:00,
2013-04-20 09:02:00,48.2,28.9,30.14,WNW,295,6.0,10.0,47,0.00,,CLR,0.00,VWS V14.01,2013-04-20 13:02:00,
2013-04-20 09:07:00,48.6,28.8,30.14,North,352,3.0,6.0,46,0.00,,CLR,0.00,VWS V14.01,2013-04-20 13:07:00,
2013-04-20 09:12:00,48.9,29.0,30.14,NW,307,2.0,15.0,46,0.00,,CLR,0.00,VWS V14.01,2013-04-20 13:12:00,
2013-04-20 09:17:00,49.2,27.1,30.14,NW,324,3.0,6.0,42,0.00,,CLR,0.00,VWS V14.01,2013-04-20 13:17:00,
2013-04-20 09:22:00,49.0,27.5,30.14,NW,307,6.0,11.0,43,0.00,,CLR,0.00,VWS V14.01,2013-04-20 13:22:00,
2013-04-20 09:27:00,49.2,26.5,30.14,WNW,290,7.0,10.0,41,0.00,,CLR,0.00,VWS V14.01,2013-04-20 13:27:00,
2013-04-20 09:32:00,49.7,27.0,30.14,NW,321,10.0,10.0,41,0.00,,CLR,0.00,VWS V14.01,2013-04-20 13:32:00,
2013-04-20 09:37:00,49.7,25.8,30.14,WNW,290,9.0,11.0,39,0.00,,CLR,0.00,VWS V14.01,2013-04-20 13:37:00,
2013-04-20 09:42:00,49.8,27.1,30.15,NW,320,1.0,8.0,41,0.00,,CLR,0.00,VWS V14.01,2013-04-20 13:42:00,
2013-04-20 09:47:00,49.8,26.5,30.15,NNW,333,7.0,8.0,40,0.00,,CLR,0.00,VWS V14.01,2013-04-20 13:47:00,
2013-04-20 09:52:00,49.8,26.5,30.15,NW,316,10.0,12.0,40,0.00,,CLR,0.00,VWS V14.01,2013-04-20 13:52:00,
2013-04-20 09:57:00,49.9,25.3,30.15,WNW,297,7.0,13.0,38,0.00,,CLR,0.00,VWS V14.01,2013-04-20 13:57:00,
2013-04-20 10:02:00,50.3,26.9,30.15,NW,316,4.0,6.0,40,0.00,,CLR,0.00,VWS V14.01,2013-04-20 14:02:00,
2013-04-20 10:07:00,50.8,28.5,30.15,NNW,346,5.0,6.0,42,0.00,,CLR,0.00,VWS V14.01,2013-04-20 14:07:00,
2013-04-20 10:12:00,51.0,28.1,30.16,NW,305,3.0,4.0,41,0.00,,CLR,0.00,VWS V14.01,2013-04-20 14:12:00,
2013-04-20 10:17:00,51.4,27.3,30.16,NNE,12,5.0,8.0,39,0.00,,CLR,0.00,VWS V14.01,2013-04-20 14:17:00,
2013-04-20 10:22:00,51.7,28.2,30.16,NW,307,3.0,4.0,40,0.00,,CLR,0.00,VWS V14.01,2013-04-20 14:22:00,
2013-04-20 10:27:00,51.9,27.7,30.16,North,349,3.0,6.0,39,0.00,,CLR,0.00,VWS V14.01,2013-04-20 14:27:00,
2013-04-20 10:32:00,52.0,29.6,30.16,WNW,302,2.0,6.0,42,0.00,,CLR,0.00,VWS V14.01,2013-04-20 14:32:00,
2013-04-20 10:37:00,52.4,25.6,30.16,NNW,340,8.0,15.0,35,0.00,,CLR,0.00,VWS V14.01,2013-04-20 14:37:00,
2013-04-20 10:42:00,52.1,27.9,30.16,NNW,330,6.0,7.0,39,0.00,,CLR,0.00,VWS V14.01,2013-04-20 14:42:00,
2013-04-20 10:47:00,52.1,26.0,30.17,NNE,25,1.0,5.0,36,0.00,,CLR,0.00,VWS V14.01,2013-04-20 14:47:00,
2013-04-20 10:52:00,52.7,28.5,30.17,NE,38,9.0,9.0,39,0.00,,CLR,0.00,VWS V14.01,2013-04-20 14:52:00,
2013-04-20 10:56:00,53.0,27.4,30.17,WNW,297,3.0,7.0,37,0.00,,CLR,0.00,VWS V14.01,2013-04-20 14:56:00,
2013-04-20 11:01:00,53.1,26.9,30.17,WNW,297,6.0,9.0,36,0.00,,CLR,0.00,VWS V14.01,2013-04-20 15:01:00,
2013-04-20 11:07:00,53.7,29.4,30.17,WNW,289,8.0,8.0,39,0.00,,CLR,0.00,VWS V14.01,2013-04-20 15:07:00,
2013-04-20 11:11:00,53.4,26.5,30.17,NW,304,5.0,10.0,35,0.00,,CLR,0.00,VWS V14.01,2013-04-20 15:11:00,
2013-04-20 11:16:00,53.3,29.0,30.17,NNW,328,4.0,8.0,39,0.00,,CLR,0.00,VWS V14.01,2013-04-20 15:16:00,
2013-04-20 11:21:00,54.2,30.4,30.17,NNW,342,2.0,6.0,40,0.00,,CLR,0.00,VWS V14.01,2013-04-20 15:21:00,
2013-04-20 11:26:00,54.5,30.7,30.17,West,267,3.0,4.0,40,0.00,,CLR,0.00,VWS V14.01,2013-04-20 15:26:00,
2013-04-20 11:32:00,55.0,29.2,30.17,NNE,32,11.0,15.0,37,0.00,,CLR,0.00,VWS V14.01,2013-04-20 15:32:00,
2013-04-20 11:37:00,54.1,30.3,30.17,ENE,62,2.0,10.0,40,0.00,,CLR,0.00,VWS V14.01,2013-04-20 15:37:00,
2013-04-20 11:42:00,54.2,27.9,30.17,NNW,342,3.0,6.0,36,0.00,,CLR,0.00,VWS V14.01,2013-04-20 15:42:00,
2013-04-20 11:47:00,54.9,29.8,30.17,NW,313,2.0,4.0,38,0.00,,CLR,0.00,VWS V14.01,2013-04-20 15:47:00,
2013-04-20 11:52:00,55.2,28.0,30.16,NNW,336,3.0,9.0,35,0.00,,CLR,0.00,VWS V14.01,2013-04-20 15:52:00,
2013-04-20 11:57:00,55.4,30.2,30.16,WNW,289,1.0,2.0,38,0.00,,CLR,0.00,VWS V14.01,2013-04-20 15:57:00,
2013-04-20 12:02:00,55.6,27.0,30.16,SE,140,1.0,10.0,33,0.00,,CLR,0.00,VWS V14.01,2013-04-20 16:02:00,
2013-04-20 12:07:00,56.2,28.2,30.16,WSW,250,3.0,8.0,34,0.00,,CLR,0.00,VWS V14.01,2013-04-20 16:07:00,
2013-04-20 12:12:00,57.0,28.2,30.16,WNW,297,5.0,6.0,33,0.00,,CLR,0.00,VWS V14.01,2013-04-20 16:12:00,
2013-04-20 12:17:00,57.2,28.4,30.16,North,358,6.0,6.0,33,0.00,,CLR,0.00,VWS V14.01,2013-04-20 16:17:00,
2013-04-20 12:22:00,57.9,29.7,30.16,NW,307,2.0,5.0,34,0.00,,CLR,0.00,VWS V14.01,2013-04-20 16:22:00,
2013-04-20 12:27:00,59.3,31.0,30.16,NW,322,4.0,5.0,34,0.00,,CLR,0.00,VWS V14.01,2013-04-20 16:27:00,
2013-04-20 12:32:00,59.5,29.6,30.16,WNW,303,1.0,4.0,32,0.00,,CLR,0.00,VWS V14.01,2013-04-20 16:32:00,
2013-04-20 12:37:00,60.0,33.7,30.16,NE,56,4.0,7.0,37,0.00,,CLR,0.00,VWS V14.01,2013-04-20 16:37:00,
2013-04-20 12:42:00,59.4,29.6,30.16,WNW,295,1.0,4.0,32,0.00,,CLR,0.00,VWS V14.01,2013-04-20 16:42:00,
2013-04-20 12:47:00,59.4,27.2,30.16,WNW,297,7.0,9.0,29,0.00,,CLR,0.00,VWS V14.01,2013-04-20 16:47:00,
2013-04-20 12:52:00,58.9,29.9,30.16,SE,129,0.0,2.0,33,0.00,,CLR,0.00,VWS V14.01,2013-04-20 16:52:00,
2013-04-20 12:57:00,60.2,30.2,30.16,NNW,333,7.0,8.0,32,0.00,,CLR,0.00,VWS V14.01,2013-04-20 16:57:00,
2013-04-20 13:02:00,59.6,30.5,30.15,NNW,342,3.0,3.0,33,0.00,,CLR,0.00,VWS V14.01,2013-04-20 17:02:00,
2013-04-20 13:07:00,59.3,27.9,30.15,NNW,338,2.0,4.0,30,0.00,,CLR,0.00,VWS V14.01,2013-04-20 17:07:00,
2013-04-20 13:12:00,59.3,32.4,30.15,WSW,256,1.0,3.0,36,0.00,,CLR,0.00,VWS V14.01,2013-04-20 17:12:00,
2013-04-20 13:17:00,60.1,29.4,30.15,South,179,1.0,5.0,31,0.00,,CLR,0.00,VWS V14.01,2013-04-20 17:17:00,
2013-04-20 13:22:00,60.6,32.1,30.15,SW,236,3.0,3.0,34,0.00,,CLR,0.00,VWS V14.01,2013-04-20 17:22:00,
2013-04-20 13:27:00,62.0,31.8,30.15,WSW,255,2.0,5.0,32,0.00,,CLR,0.00,VWS V14.01,2013-04-20 17:27:00,
2013-04-20 13:32:00,62.8,33.3,30.14,WSW,256,1.0,2.0,33,0.00,,CLR,0.00,VWS V14.01,2013-04-20 17:32:00,
2013-04-20 13:37:00,64.0,35.1,30.14,NNE,22,1.0,2.0,34,0.00,,CLR,0.00,VWS V14.01,2013-04-20 17:37:00,
2013-04-20 13:42:00,62.8,30.9,30.14,SSE,162,3.0,7.0,30,0.00,,CLR,0.00,VWS V14.01,2013-04-20 17:42:00,
2013-04-20 13:47:00,63.0,30.3,30.14,SSE,156,4.0,6.0,29,0.00,,CLR,0.00,VWS V14.01,2013-04-20 17:47:00,
2013-04-20 13:52:00,62.4,29.8,30.14,SW,222,5.0,5.0,29,0.00,,CLR,0.00,VWS V14.01,2013-04-20 17:52:00,
2013-04-20 13:57:00,62.6,30.8,30.14,South,176,2.0,5.0,30,0.00,,CLR,0.00,VWS V14.01,2013-04-20 17:57:00,
2013-04-20 14:02:00,62.2,33.5,30.14,SW,229,2.0,3.0,34,0.00,,CLR,0.00,VWS V14.01,2013-04-20 18:02:00,
2013-04-20 14:07:00,62.3,30.5,30.14,SSE,160,1.0,3.0,30,0.00,,CLR,0.00,VWS V14.01,2013-04-20 18:07:00,
2013-04-20 14:12:00,63.0,34.9,30.14,South,184,0.0,2.0,35,0.00,,CLR,0.00,VWS V14.01,2013-04-20 18:12:00,
2013-04-20 14:17:00,64.3,31.4,30.14,South,187,3.0,3.0,29,0.00,,CLR,0.00,VWS V14.01,2013-04-20 18:17:00,
2013-04-20 14:22:00,64.3,33.0,30.14,SW,226,4.0,4.0,31,0.00,,CLR,0.00,VWS V14.01,2013-04-20 18:22:00,
2013-04-20 14:27:00,64.3,34.6,30.14,NNE,16,1.0,2.0,33,0.00,,CLR,0.00,VWS V14.01,2013-04-20 18:27:00,
2013-04-20 14:32:00,64.2,32.2,30.14,SSE,156,1.0,2.0,30,0.00,,CLR,0.00,VWS V14.01,2013-04-20 18:32:00,
2013-04-20 14:37:00,64.1,30.4,30.14,WSW,243,2.0,7.0,28,0.00,,CLR,0.00,VWS V14.01,2013-04-20 18:37:00,
2013-04-20 14:42:00,63.9,31.0,30.14,South,179,3.0,3.0,29,0.00,,CLR,0.00,VWS V14.01,2013-04-20 18:42:00,
2013-04-20 14:47:00,63.9,31.9,30.14,WSW,258,1.0,3.0,30,0.00,,CLR,0.00,VWS V14.01,2013-04-20 18:47:00,
2013-04-20 14:52:00,64.1,31.2,30.14,NW,305,2.0,7.0,29,0.00,,CLR,0.00,VWS V14.01,2013-04-20 18:52:00,
2013-04-20 14:57:00,64.5,33.2,30.14,NW,311,1.0,2.0,31,0.00,,CLR,0.00,VWS V14.01,2013-04-20 18:57:00,
2013-04-20 15:02:00,64.1,32.9,30.14,SSE,166,1.0,4.0,31,0.00,,CLR,0.00,VWS V14.01,2013-04-20 19:02:00,
2013-04-20 15:07:00,64.3,34.6,30.14,SE,131,1.0,1.0,33,0.00,,CLR,0.00,VWS V14.01,2013-04-20 19:07:00,
2013-04-20 15:12:00,64.5,30.7,30.14,SSW,195,3.0,6.0,28,0.00,,CLR,0.00,VWS V14.01,2013-04-20 19:12:00,
2013-04-20 15:17:00,64.6,34.9,30.14,SSW,207,1.0,1.0,33,0.00,,CLR,0.00,VWS V14.01,2013-04-20 19:17:00,
2013-04-20 15:22:00,64.9,31.9,30.14,NNE,27,4.0,5.0,29,0.00,,CLR,0.00,VWS V14.01,2013-04-20 19:22:00,
2013-04-20 15:27:00,63.8,32.6,30.13,NE,56,4.0,4.0,31,0.00,,CLR,0.00,VWS V14.01,2013-04-20 19:27:00,
2013-04-20 15:32:00,63.7,31.7,30.13,NNW,336,0.0,2.0,30,0.00,,CLR,0.00,VWS V14.01,2013-04-20 19:32:00,
2013-04-20 15:37:00,64.7,32.6,30.13,WNW,300,4.0,6.0,30,0.00,,CLR,0.00,VWS V14.01,2013-04-20 19:37:00,
2013-04-20 15:42:00,63.7,30.0,30.13,West,260,1.0,3.0,28,0.00,,CLR,0.00,VWS V14.01,2013-04-20 19:42:00,
2013-04-20 15:47:00,64.1,34.4,30.13,NW,318,0.0,3.0,33,0.00,,CLR,0.00,VWS V14.01,2013-04-20 19:47:00,
2013-04-20 15:52:00,64.4,31.5,30.13,NW,322,3.0,5.0,29,0.00,,CLR,0.00,VWS V14.01,2013-04-20 19:52:00,
2013-04-20 15:57:00,63.7,30.9,30.12,East,81,1.0,2.0,29,0.00,,CLR,0.00,VWS V14.01,2013-04-20 19:57:00,
2013-04-20 16:02:00,63.4,31.5,30.12,NE,56,1.0,7.0,30,0.00,,CLR,0.00,VWS V14.01,2013-04-20 20:02:00,
2013-04-20 16:07:00,63.1,32.8,30.12,NW,322,2.0,6.0,32,0.00,,CLR,0.00,VWS V14.01,2013-04-20 20:07:00,
2013-04-20 16:12:00,63.0,30.3,30.12,NNE,27,4.0,7.0,29,0.00,,CLR,0.00,VWS V14.01,2013-04-20 20:12:00,
2013-04-20 16:17:00,63.0,30.3,30.12,North,360,2.0,4.0,29,0.00,,CLR,0.00,VWS V14.01,2013-04-20 20:17:00,
2013-04-20 16:22:00,63.1,28.6,30.12,WSW,239,2.0,3.0,27,0.00,,CLR,0.00,VWS V14.01,2013-04-20 20:22:00,
2013-04-20 16:27:00,63.5,30.7,30.12,WSW,245,2.0,3.0,29,0.00,,CLR,0.00,VWS V14.01,2013-04-20 20:27:00,
2013-04-20 16:32:00,63.5,30.7,30.13,SW,232,3.0,4.0,29,0.00,,CLR,0.00,VWS V14.01,2013-04-20 20:32:00,
2013-04-20 16:37:00,63.2,32.1,30.12,WSW,238,3.0,4.0,31,0.00,,CLR,0.00,VWS V14.01,2013-04-20 20:37:00,
2013-04-20 16:42:00,63.2,32.1,30.12,WSW,253,1.0,6.0,31,0.00,,CLR,0.00,VWS V14.01,2013-04-20 20:42:00,
2013-04-20 16:47:00,63.1,29.5,30.12,NW,304,6.0,6.0,28,0.00,,CLR,0.00,VWS V14.01,2013-04-20 20:47:00,
2013-04-20 16:52:00,62.4,30.6,30.12,SSW,193,0.0,1.0,30,0.00,,CLR,0.00,VWS V14.01,2013-04-20 20:52:00,
2013-04-20 16:57:00,62.4,30.6,30.13,ENE,58,1.0,2.0,30,0.00,,CLR,0.00,VWS V14.01,2013-04-20 20:57:00,
2013-04-20 17:02:00,62.4,28.9,30.13,WNW,294,2.0,6.0,28,0.00,,CLR,0.00,VWS V14.01,2013-04-20 21:02:00,
2013-04-20 17:07:00,62.0,30.2,30.13,West,267,3.0,4.0,30,0.00,,CLR,0.00,VWS V14.01,2013-04-20 21:07:00,
2013-04-20 17:12:00,62.0,28.5,30.13,NW,315,2.0,3.0,28,0.00,,CLR,0.00,VWS V14.01,2013-04-20 21:12:00,
2013-04-20 17:17:00,62.2,29.6,30.13,NE,45,4.0,4.0,29,0.00,,CLR,0.00,VWS V14.01,2013-04-20 21:17:00,
2013-04-20 17:22:00,62.2,31.2,30.13,NE,36,4.0,9.0,31,0.00,,CLR,0.00,VWS V14.01,2013-04-20 21:22:00,
2013-04-20 17:27:00,62.2,28.7,30.13,NW,307,2.0,8.0,28,0.00,,CLR,0.00,VWS V14.01,2013-04-20 21:27:00,
2013-04-20 17:32:00,62.2,29.6,30.13,NW,315,1.0,5.0,29,0.00,,CLR,0.00,VWS V14.01,2013-04-20 21:32:00,
2013-04-20 17:37:00,62.3,29.7,30.14,NNW,342,3.0,6.0,29,0.00,,CLR,0.00,VWS V14.01,2013-04-20 21:37:00,
2013-04-20 17:42:00,62.2,31.2,30.14,NNW,336,1.0,2.0,31,0.00,,CLR,0.00,VWS V14.01,2013-04-20 21:42:00,
2013-04-20 17:47:00,62.3,30.5,30.14,North,3,2.0,3.0,30,0.00,,CLR,0.00,VWS V14.01,2013-04-20 21:47:00,
2013-04-20 17:52:00,62.0,30.2,30.14,NE,46,6.0,7.0,30,0.00,,CLR,0.00,VWS V14.01,2013-04-20 21:52:00,
2013-04-20 17:57:00,62.0,30.2,30.14,NW,312,2.0,7.0,30,0.00,,CLR,0.00,VWS V14.01,2013-04-20 21:57:00,
2013-04-20 18:02:00,62.0,30.2,30.14,NE,36,2.0,2.0,30,0.00,,CLR,0.00,VWS V14.01,2013-04-20 22:02:00,
2013-04-20 18:07:00,61.8,30.9,30.15,NNE,21,2.0,6.0,31,0.00,,CLR,0.00,VWS V14.01,2013-04-20 22:07:00,
2013-04-20 18:12:00,61.5,30.6,30.15,NE,46,5.0,5.0,31,0.00,,CLR,0.00,VWS V14.01,2013-04-20 22:12:00,
2013-04-20 18:17:00,61.3,30.4,30.15,NNW,330,1.0,4.0,31,0.00,,CLR,0.00,VWS V14.01,2013-04-20 22:17:00,
2013-04-20 18:22:00,61.0,30.2,30.15,NE,45,5.0,13.0,31,0.00,,CLR,0.00,VWS V14.01,2013-04-20 22:22:00,
2013-04-20 18:27:00,60.9,31.6,30.15,NNE,27,3.0,4.0,33,0.00,,CLR,0.00,VWS V14.01,2013-04-20 22:27:00,
2013-04-20 18:32:00,60.7,30.7,30.15,NNW,346,3.0,8.0,32,0.00,,CLR,0.00,VWS V14.01,2013-04-20 22:32:00,
2013-04-20 18:37:00,60.4,29.6,30.15,NE,39,8.0,8.0,31,0.00,,CLR,0.00,VWS V14.01,2013-04-20 22:37:00,
2013-04-20 18:42:00,60.5,28.9,30.16,NW,316,2.0,8.0,30,0.00,,CLR,0.00,VWS V14.01,2013-04-20 22:42:00,
2013-04-20 18:47:00,60.5,27.3,30.16,WNW,302,5.0,10.0,28,0.00,,CLR,0.00,VWS V14.01,2013-04-20 22:47:00,
2013-04-20 18:52:00,60.2,27.0,30.16,NW,311,5.0,12.0,28,0.00,,CLR,0.00,VWS V14.01,2013-04-20 22:52:00,
2013-04-20 18:57:00,60.0,27.7,30.17,WNW,298,6.0,10.0,29,0.00,,CLR,0.00,VWS V14.01,2013-04-20 22:57:00,
2013-04-20 19:02:00,59.8,27.5,30.17,NW,307,3.0,9.0,29,0.00,,CLR,0.00,VWS V14.01,2013-04-20 23:02:00,
2013-04-20 19:07:00,59.6,28.1,30.17,NW,322,3.0,5.0,30,0.00,,CLR,0.00,VWS V14.01,2013-04-20 23:07:00,
2013-04-20 19:12:00,59.4,28.8,30.17,NW,325,1.0,3.0,31,0.00,,CLR,0.00,VWS V14.01,2013-04-20 23:12:00,
2013-04-20 19:17:00,59.1,28.5,30.17,WNW,294,6.0,6.0,31,0.00,,CLR,0.00,VWS V14.01,2013-04-20 23:17:00,
2013-04-20 19:22:00,59.0,30.0,30.18,NNW,347,2.0,3.0,33,0.00,,CLR,0.00,VWS V14.01,2013-04-20 23:22:00,
2013-04-20 19:27:00,58.7,28.9,30.18,WNW,302,5.0,10.0,32,0.00,,CLR,0.00,VWS V14.01,2013-04-20 23:27:00,
2013-04-20 19:32:00,58.6,29.6,30.18,NW,307,3.0,4.0,33,0.00,,CLR,0.00,VWS V14.01,2013-04-20 23:32:00,
2013-04-20 19:37:00,58.2,30.0,30.19,NNW,329,0.0,2.0,34,0.00,,CLR,0.00,VWS V14.01,2013-04-20 23:37:00,
2013-04-20 19:42:00,57.9,29.7,30.19,NW,324,0.0,3.0,34,0.00,,CLR,0.00,VWS V14.01,2013-04-20 23:42:00,
2013-04-20 19:47:00,57.5,30.1,30.19,NW,324,2.0,2.0,35,0.00,,CLR,0.00,VWS V14.01,2013-04-20 23:47:00,
2013-04-20 19:52:00,57.3,29.9,30.20,NW,307,2.0,2.0,35,0.00,,CLR,0.00,VWS V14.01,2013-04-20 23:52:00,
2013-04-20 19:57:00,56.9,30.2,30.20,NE,41,0.0,1.0,36,0.00,,CLR,0.00,VWS V14.01,2013-04-20 23:57:00,
2013-04-20 20:02:00,56.5,29.9,30.20,West,271,0.0,1.0,36,0.00,,CLR,0.00,VWS V14.01,2013-04-21 00:02:00,
2013-04-20 20:07:00,56.1,30.9,30.20,WNW,302,0.0,2.0,38,0.00,,CLR,0.00,VWS V14.01,2013-04-21 00:07:00,
2013-04-20 20:12:00,55.5,32.2,30.21,NW,322,0.0,0.0,41,0.00,,CLR,0.00,VWS V14.01,2013-04-21 00:12:00,
2013-04-20 20:17:00,55.1,30.6,30.21,WNW,288,1.0,1.0,39,0.00,,CLR,0.00,VWS V14.01,2013-04-21 00:17:00,
2013-04-20 20:22:00,54.7,32.1,30.21,WNW,287,0.0,0.0,42,0.00,,CLR,0.00,VWS V14.01,2013-04-21 00:22:00,
2013-04-20 20:27:00,53.9,34.2,30.22,WNW,287,0.0,0.0,47,0.00,,CLR,0.00,VWS V14.01,2013-04-21 00:27:00,
2013-04-20 20:32:00,52.8,34.7,30.22,South,169,0.0,1.0,50,0.00,,CLR,0.00,VWS V14.01,2013-04-21 00:32:00,
2013-04-20 20:37:00,51.6,34.6,30.22,South,169,0.0,0.0,52,0.00,,CLR,0.00,VWS V14.01,2013-04-21 00:37:00,
2013-04-20 20:42:00,50.7,35.1,30.23,SSE,156,1.0,2.0,55,0.00,,CLR,0.00,VWS V14.01,2013-04-21 00:42:00,
2013-04-20 20:47:00,49.9,35.7,30.23,SSE,156,1.0,1.0,58,0.00,,CLR,0.00,VWS V14.01,2013-04-21 00:47:00,
2013-04-20 20:52:00,49.3,35.2,30.24,SSE,156,0.0,0.0,58,0.00,,CLR,0.00,VWS V14.01,2013-04-21 00:52:00,
2013-04-20 20:57:00,48.8,35.5,30.24,SSE,157,0.0,0.0,60,0.00,,CLR,0.00,VWS V14.01,2013-04-21 00:57:00,
2013-04-20 21:02:00,48.3,35.5,30.24,SSE,157,0.0,0.0,61,0.00,,CLR,0.00,VWS V14.01,2013-04-21 01:02:00,
2013-04-20 21:07:00,47.9,35.1,30.24,SSE,156,0.0,0.0,61,0.00,,CLR,0.00,VWS V14.01,2013-04-21 01:07:00,
2013-04-20 21:12:00,47.5,35.9,30.25,SSE,160,0.0,0.0,64,0.00,,CLR,0.00,VWS V14.01,2013-04-21 01:12:00,
2013-04-20 21:17:00,47.2,36.0,30.25,SSE,158,0.0,0.0,65,0.00,,CLR,0.00,VWS V14.01,2013-04-21 01:17:00,
2013-04-20 21:22:00,46.7,36.0,30.26,SSE,158,1.0,2.0,66,0.00,,CLR,0.00,VWS V14.01,2013-04-21 01:22:00,
2013-04-20 21:27:00,46.2,36.2,30.26,SSE,158,0.0,0.0,68,0.00,,CLR,0.00,VWS V14.01,2013-04-21 01:27:00,
2013-04-20 21:32:00,45.9,36.0,30.26,SSE,158,0.0,0.0,68,0.00,,CLR,0.00,VWS V14.01,2013-04-21 01:32:00,
2013-04-20 21:37:00,45.6,36.0,30.27,SSE,158,0.0,0.0,69,0.00,,CLR,0.00,VWS V14.01,2013-04-21 01:37:00,
2013-04-20 21:42:00,45.3,36.1,30.27,SSE,158,0.0,0.0,70,0.00,,CLR,0.00,VWS V14.01,2013-04-21 01:42:00,
2013-04-20 21:47:00,44.9,35.7,30.27,SSE,158,0.0,0.0,70,0.00,,CLR,0.00,VWS V14.01,2013-04-21 01:47:00,
2013-04-20 21:52:00,44.6,35.8,30.27,SSE,158,0.0,0.0,71,0.00,,CLR,0.00,VWS V14.01,2013-04-21 01:52:00,
2013-04-20 21:57:00,44.5,36.4,30.27,SSE,158,0.0,0.0,73,0.00,,CLR,0.00,VWS V14.01,2013-04-21 01:57:00,
2013-04-20 22:02:00,44.3,36.5,30.27,SSE,158,0.0,0.0,74,0.00,,CLR,0.00,VWS V14.01,2013-04-21 02:02:00,
2013-04-20 22:07:00,44.0,36.3,30.27,SSE,158,0.0,0.0,74,0.00,,CLR,0.00,VWS V14.01,2013-04-21 02:07:00,
2013-04-20 22:12:00,43.4,36.0,30.27,SSE,158,0.0,0.0,75,0.00,,CLR,0.00,VWS V14.01,2013-04-21 02:12:00,
2013-04-20 22:17:00,43.1,36.4,30.27,SSE,158,0.0,0.0,77,0.00,,CLR,0.00,VWS V14.01,2013-04-21 02:17:00,
2013-04-20 22:22:00,42.8,36.1,30.27,SSE,158,0.0,0.0,77,0.00,,CLR,0.00,VWS V14.01,2013-04-21 02:22:00,
2013-04-20 22:27:00,42.5,35.8,30.27,SSE,158,0.0,0.0,77,0.00,,CLR,0.00,VWS V14.01,2013-04-21 02:27:00,
2013-04-20 22:32:00,42.3,36.3,30.28,SSE,158,0.0,0.0,79,0.00,,CLR,0.00,VWS V14.01,2013-04-21 02:32:00,
2013-04-20 22:37:00,42.1,36.1,30.28,SSE,158,0.0,0.0,79,0.00,,CLR,0.00,VWS V14.01,2013-04-21 02:37:00,
2013-04-20 22:42:00,41.9,36.2,30.28,SSE,158,0.0,0.0,80,0.00,,CLR,0.00,VWS V14.01,2013-04-21 02:42:00,
2013-04-20 22:47:00,41.6,36.2,30.28,SSE,158,0.0,0.0,81,0.00,,CLR,0.00,VWS V14.01,2013-04-21 02:47:00,
2013-04-20 22:52:00,41.5,36.4,30.28,SSE,158,0.0,0.0,82,0.00,,CLR,0.00,VWS V14.01,2013-04-21 02:52:00,
2013-04-20 22:57:00,41.2,36.1,30.28,SSE,158,0.0,0.0,82,0.00,,CLR,0.00,VWS V14.01,2013-04-21 02:57:00,
2013-04-20 23:01:00,41.1,36.3,30.29,SSE,158,0.0,0.0,83,0.00,,CLR,0.00,VWS V14.01,2013-04-21 03:01:00,
2013-04-20 23:07:00,40.9,36.1,30.28,SSE,158,0.0,0.0,83,0.00,,CLR,0.00,VWS V14.01,2013-04-21 03:07:00,
2013-04-20 23:12:00,40.8,36.3,30.29,North,0,0.0,0.0,84,0.00,,CLR,0.00,VWS V14.01,2013-04-21 03:12:00,
2013-04-20 23:17:00,40.5,35.8,30.29,SSE,158,0.0,0.0,83,0.00,,CLR,0.00,VWS V14.01,2013-04-21 03:17:00,
2013-04-20 23:22:00,40.5,36.3,30.29,SSE,158,0.0,0.0,85,0.00,,CLR,0.00,VWS V14.01,2013-04-21 03:22:00,
2013-04-20 23:27:00,40.5,36.7,30.29,SSE,158,0.0,0.0,86,0.00,,CLR,0.00,VWS V14.01,2013-04-21 03:27:00,
2013-04-20 23:32:00,40.4,36.5,30.29,SSE,158,0.0,0.0,86,0.00,,CLR,0.00,VWS V14.01,2013-04-21 03:32:00,
2013-04-20 23:37:00,40.1,36.3,30.29,SSE,158,0.0,0.0,86,0.00,,CLR,0.00,VWS V14.01,2013-04-21 03:37:00,
2013-04-20 23:42:00,39.7,36.2,30.29,SSE,158,0.0,0.0,87,0.00,,CLR,0.00,VWS V14.01,2013-04-21 03:42:00,
2013-04-20 23:47:00,39.5,36.0,30.29,SSE,158,0.0,0.0,87,0.00,,CLR,0.00,VWS V14.01,2013-04-21 03:47:00,
2013-04-20 23:52:00,39.4,35.9,30.30,SSE,158,0.0,0.0,87,0.00,,CLR,0.00,VWS V14.01,2013-04-21 03:52:00,
2013-04-20 23:57:00,39.3,35.8,30.30,SSE,158,0.0,0.0,87,0.00,,CLR,0.00,VWS V14.01,2013-04-21 03:57:00,